createdAt,value
2016-12-31T00:00:11.137Z,0
2016-12-31T00:01:11.154Z,0
2016-12-31T00:02:11.168Z,0
2016-12-31T00:03:11.181Z,0
2016-12-31T00:04:11.195Z,0
2016-12-31T00:05:26.124Z,0
2016-12-31T00:06:11.221Z,0
2016-12-31T00:07:11.236Z,0
2016-12-31T00:08:11.247Z,0
2016-12-31T00:09:11.260Z,0
2016-12-31T00:10:11.281Z,0
2016-12-31T00:11:11.287Z,0
2016-12-31T00:12:11.301Z,0
2016-12-31T00:13:11.317Z,0
2016-12-31T00:14:26.244Z,0
2016-12-31T00:16:26.268Z,0
2016-12-31T00:17:11.364Z,0
2016-12-31T00:18:11.385Z,0
2016-12-31T00:19:11.394Z,0
2016-12-31T00:20:26.322Z,0
2016-12-31T00:21:11.419Z,0
2016-12-31T00:22:11.430Z,0
2016-12-31T00:23:11.447Z,0
2016-12-31T00:24:11.463Z,0
2016-12-31T00:25:11.480Z,0
2016-12-31T00:26:11.880Z,0
2016-12-31T00:27:11.500Z,0
2016-12-31T00:28:11.514Z,0
2016-12-31T00:29:11.524Z,0
2016-12-31T00:30:11.544Z,0
2016-12-31T00:31:26.471Z,0
2016-12-31T00:32:11.566Z,0
2016-12-31T00:33:11.580Z,0
2016-12-31T00:34:11.592Z,0
2016-12-31T00:35:11.606Z,0
2016-12-31T00:36:11.622Z,0
2016-12-31T00:37:11.658Z,0
2016-12-31T00:38:11.648Z,0
2016-12-31T00:39:11.660Z,0
2016-12-31T00:40:11.672Z,0
2016-12-31T00:41:11.690Z,0
2016-12-31T00:42:26.621Z,0
2016-12-31T00:43:11.712Z,0
2016-12-31T00:44:11.728Z,0
2016-12-31T00:45:26.657Z,0
2016-12-31T00:46:11.752Z,0
2016-12-31T00:47:11.764Z,0
2016-12-31T00:48:11.777Z,0
2016-12-31T00:49:11.790Z,0
2016-12-31T00:50:11.806Z,0
2016-12-31T00:51:11.816Z,0
2016-12-31T00:52:26.749Z,0
2016-12-31T00:53:11.847Z,0
2016-12-31T00:54:11.859Z,0
2016-12-31T00:55:11.872Z,0
2016-12-31T00:56:11.883Z,0
2016-12-31T00:57:11.893Z,0
2016-12-31T00:58:11.911Z,0
2016-12-31T00:59:11.923Z,0
2016-12-31T01:00:11.939Z,0
2016-12-31T01:01:11.947Z,0
2016-12-31T01:02:11.965Z,0
2016-12-31T01:03:26.893Z,0
2016-12-31T01:04:11.990Z,0
2016-12-31T01:05:12.004Z,0
2016-12-31T01:06:12.015Z,0
2016-12-31T01:07:12.028Z,0
2016-12-31T01:08:26.960Z,0
2016-12-31T01:09:12.056Z,0
2016-12-31T01:10:12.073Z,0
2016-12-31T01:11:12.082Z,0
2016-12-31T01:12:27.014Z,0
2016-12-31T01:13:12.113Z,0
2016-12-31T01:14:12.123Z,0
2016-12-31T01:15:12.135Z,0
2016-12-31T01:16:27.067Z,0
2016-12-31T01:17:27.083Z,0
2016-12-31T01:18:12.178Z,0
2016-12-31T01:20:27.119Z,0
2016-12-31T01:22:12.226Z,0
2016-12-31T01:23:12.242Z,0
2016-12-31T01:24:27.170Z,0
2016-12-31T01:25:12.269Z,0
2016-12-31T01:26:12.277Z,0
2016-12-31T01:27:12.294Z,0
2016-12-31T01:28:12.303Z,0
2016-12-31T01:29:12.321Z,0
2016-12-31T01:30:12.336Z,0
2016-12-31T01:31:12.344Z,0
2016-12-31T01:32:12.354Z,0
2016-12-31T01:33:12.373Z,0
2016-12-31T01:34:27.301Z,0
2016-12-31T01:35:12.396Z,0
2016-12-31T01:36:12.410Z,0
2016-12-31T01:37:12.427Z,0
2016-12-31T01:38:12.437Z,0
2016-12-31T01:39:12.454Z,0
2016-12-31T01:40:27.378Z,0
2016-12-31T01:41:12.474Z,0
2016-12-31T01:42:12.487Z,0
2016-12-31T01:43:12.889Z,0
2016-12-31T01:44:12.514Z,0
2016-12-31T01:45:12.528Z,0
2016-12-31T01:46:27.458Z,0
2016-12-31T01:47:12.556Z,0
2016-12-31T01:48:27.487Z,0
2016-12-31T01:49:12.580Z,0
2016-12-31T01:50:27.511Z,0
2016-12-31T01:51:12.608Z,0
2016-12-31T01:52:12.621Z,0
2016-12-31T01:53:12.633Z,0
2016-12-31T01:54:12.669Z,0
2016-12-31T01:55:27.576Z,0
2016-12-31T01:56:12.671Z,0
2016-12-31T01:57:12.686Z,0
2016-12-31T01:58:12.697Z,0
2016-12-31T01:59:12.708Z,0
2016-12-31T02:00:12.723Z,0
2016-12-31T02:01:12.737Z,0
2016-12-31T02:03:12.763Z,0
2016-12-31T02:04:12.776Z,0
2016-12-31T02:07:12.824Z,0
2016-12-31T02:08:12.828Z,0
2016-12-31T02:09:13.230Z,0
2016-12-31T02:10:12.903Z,0
2016-12-31T02:11:12.870Z,0
2016-12-31T02:12:12.932Z,0
2016-12-31T02:13:12.892Z,0
2016-12-31T02:14:12.906Z,0
2016-12-31T02:15:12.923Z,0
2016-12-31T02:16:12.933Z,0
2016-12-31T02:17:12.948Z,0
2016-12-31T02:18:27.875Z,0
2016-12-31T02:19:12.973Z,0
2016-12-31T02:20:12.986Z,0
2016-12-31T02:22:13.013Z,0
2016-12-31T02:24:13.035Z,0
2016-12-31T02:25:13.055Z,0
2016-12-31T02:26:13.062Z,0
2016-12-31T02:27:28.020Z,0
2016-12-31T02:28:13.087Z,0
2016-12-31T02:29:13.105Z,0
2016-12-31T02:30:13.118Z,0
2016-12-31T02:31:13.138Z,0
2016-12-31T02:32:28.090Z,0
2016-12-31T02:33:13.155Z,0
2016-12-31T02:34:13.164Z,0
2016-12-31T02:35:13.180Z,0
2016-12-31T02:36:13.196Z,0
2016-12-31T02:37:13.205Z,0
2016-12-31T02:38:13.217Z,0
2016-12-31T02:39:13.232Z,0
2016-12-31T02:40:28.187Z,0
2016-12-31T02:41:13.259Z,0
2016-12-31T02:42:13.268Z,0
2016-12-31T02:43:28.201Z,0
2016-12-31T02:44:13.295Z,0
2016-12-31T02:45:13.311Z,0
2016-12-31T02:46:13.321Z,0
2016-12-31T02:47:13.338Z,0
2016-12-31T02:48:13.349Z,0
2016-12-31T02:49:13.359Z,0
2016-12-31T02:50:28.294Z,0
2016-12-31T02:51:13.387Z,0
2016-12-31T02:52:13.396Z,0
2016-12-31T02:53:28.332Z,0
2016-12-31T02:54:28.371Z,0
2016-12-31T02:55:13.441Z,0
2016-12-31T02:56:13.454Z,0
2016-12-31T02:57:13.471Z,0
2016-12-31T02:58:13.474Z,0
2016-12-31T02:59:28.405Z,0
2016-12-31T03:00:13.510Z,0
2016-12-31T03:01:13.517Z,0
2016-12-31T03:02:13.528Z,0
2016-12-31T03:03:13.540Z,0
2016-12-31T03:04:13.578Z,0
2016-12-31T03:05:13.570Z,0
2016-12-31T03:06:13.583Z,0
2016-12-31T03:07:28.508Z,0
2016-12-31T03:08:13.606Z,0
2016-12-31T03:09:28.537Z,0
2016-12-31T03:10:13.640Z,0
2016-12-31T03:11:13.642Z,0
2016-12-31T03:12:13.660Z,0
2016-12-31T03:13:13.670Z,0
2016-12-31T03:14:13.682Z,0
2016-12-31T03:15:28.612Z,0
2016-12-31T03:16:13.713Z,0
2016-12-31T03:17:13.723Z,0
2016-12-31T03:18:13.733Z,0
2016-12-31T03:19:13.746Z,0
2016-12-31T03:20:13.759Z,0
2016-12-31T03:21:13.770Z,0
2016-12-31T03:22:13.788Z,0
2016-12-31T03:23:13.798Z,0
2016-12-31T03:24:13.812Z,0
2016-12-31T03:25:28.744Z,0
2016-12-31T03:26:13.840Z,0
2016-12-31T03:27:13.857Z,0
2016-12-31T03:28:13.864Z,0
2016-12-31T03:29:13.877Z,0
2016-12-31T03:30:28.811Z,0
2016-12-31T03:31:13.905Z,0
2016-12-31T03:32:13.916Z,0
2016-12-31T03:33:13.929Z,0
2016-12-31T03:34:13.943Z,0
2016-12-31T03:35:13.954Z,0
2016-12-31T03:36:28.885Z,0
2016-12-31T03:37:13.982Z,0
2016-12-31T03:38:13.995Z,0
2016-12-31T03:39:14.004Z,0
2016-12-31T03:40:28.936Z,0
2016-12-31T03:42:14.045Z,0
2016-12-31T03:43:28.972Z,0
2016-12-31T03:45:14.084Z,0
2016-12-31T03:46:14.104Z,0
2016-12-31T03:47:14.112Z,0
2016-12-31T03:48:14.121Z,0
2016-12-31T03:49:29.054Z,0
2016-12-31T03:50:14.150Z,0
2016-12-31T03:51:14.260Z,0
2016-12-31T03:52:14.177Z,0
2016-12-31T03:53:14.189Z,0
2016-12-31T03:54:14.219Z,0
2016-12-31T03:55:14.210Z,0
2016-12-31T03:56:14.223Z,0
2016-12-31T03:57:14.245Z,0
2016-12-31T03:58:29.166Z,0
2016-12-31T03:59:14.290Z,0
2016-12-31T04:01:14.286Z,0
2016-12-31T04:02:44.140Z,0
2016-12-31T04:03:14.312Z,0
2016-12-31T04:04:14.329Z,0
2016-12-31T04:05:14.338Z,0
2016-12-31T04:06:14.354Z,0
2016-12-31T04:07:14.362Z,0
2016-12-31T04:08:14.430Z,0
2016-12-31T04:09:14.394Z,0
2016-12-31T04:10:29.348Z,0
2016-12-31T04:11:14.418Z,0
2016-12-31T04:12:14.730Z,0
2016-12-31T04:13:14.446Z,0
2016-12-31T04:14:29.370Z,0
2016-12-31T04:15:14.469Z,0
2016-12-31T04:16:14.478Z,0
2016-12-31T04:17:14.490Z,0
2016-12-31T04:18:29.424Z,0
2016-12-31T04:19:14.518Z,0
2016-12-31T04:20:14.528Z,0
2016-12-31T04:21:14.545Z,0
2016-12-31T04:22:14.555Z,0
2016-12-31T04:23:29.486Z,0
2016-12-31T04:24:29.499Z,0
2016-12-31T04:25:29.511Z,0
2016-12-31T04:26:14.606Z,0
2016-12-31T04:27:14.619Z,0
2016-12-31T04:28:14.658Z,0
2016-12-31T04:30:14.659Z,0
2016-12-31T04:31:14.672Z,0
2016-12-31T04:32:14.684Z,0
2016-12-31T04:33:14.696Z,0
2016-12-31T04:34:29.625Z,0
2016-12-31T04:35:14.717Z,0
2016-12-31T04:36:14.733Z,0
2016-12-31T04:37:14.745Z,0
2016-12-31T04:38:14.760Z,0
2016-12-31T04:39:14.769Z,0
2016-12-31T04:40:14.783Z,0
2016-12-31T04:41:14.798Z,0
2016-12-31T04:42:14.806Z,0
2016-12-31T04:43:14.849Z,0
2016-12-31T04:44:14.832Z,0
2016-12-31T04:45:14.848Z,0
2016-12-31T04:46:14.859Z,0
2016-12-31T04:47:14.871Z,0
2016-12-31T04:48:14.882Z,0
2016-12-31T04:49:14.897Z,0
2016-12-31T04:50:29.825Z,0
2016-12-31T04:51:14.921Z,0
2016-12-31T04:52:14.931Z,0
2016-12-31T04:53:14.944Z,0
2016-12-31T04:54:14.956Z,0
2016-12-31T04:55:14.989Z,0
2016-12-31T04:56:14.984Z,0
2016-12-31T04:57:14.996Z,0
2016-12-31T04:58:29.928Z,0
2016-12-31T04:59:15.020Z,0
2016-12-31T05:00:15.037Z,0
2016-12-31T05:01:15.075Z,0
2016-12-31T05:02:15.445Z,0
2016-12-31T05:04:15.085Z,0
2016-12-31T05:05:30.015Z,0
2016-12-31T05:06:15.113Z,0
2016-12-31T05:07:15.121Z,0
2016-12-31T05:08:15.136Z,0
2016-12-31T05:09:15.147Z,0
2016-12-31T05:10:15.166Z,0
2016-12-31T05:11:15.179Z,0
2016-12-31T05:12:15.186Z,0
2016-12-31T05:13:30.118Z,0
2016-12-31T05:14:15.210Z,0
2016-12-31T05:15:15.227Z,0
2016-12-31T05:16:15.623Z,0
2016-12-31T05:17:15.250Z,0
2016-12-31T05:18:30.179Z,0
2016-12-31T05:19:15.275Z,0
2016-12-31T05:20:15.287Z,0
2016-12-31T05:21:15.302Z,0
2016-12-31T05:22:15.315Z,0
2016-12-31T05:23:15.325Z,0
2016-12-31T05:24:15.336Z,0
2016-12-31T05:25:15.348Z,0
2016-12-31T05:26:15.664Z,0
2016-12-31T05:27:30.291Z,0
2016-12-31T05:29:15.400Z,0
2016-12-31T05:30:30.629Z,0
2016-12-31T05:32:30.358Z,0
2016-12-31T05:33:15.450Z,0
2016-12-31T05:34:15.460Z,0
2016-12-31T05:35:15.475Z,0
2016-12-31T05:36:15.496Z,0
2016-12-31T05:37:30.415Z,0
2016-12-31T05:38:15.513Z,0
2016-12-31T05:39:15.523Z,0
2016-12-31T05:40:15.532Z,0
2016-12-31T05:41:15.561Z,0
2016-12-31T05:42:30.478Z,0
2016-12-31T05:43:15.575Z,0
2016-12-31T05:44:15.586Z,0
2016-12-31T05:45:15.597Z,0
2016-12-31T05:46:15.610Z,0
2016-12-31T05:47:15.625Z,0
2016-12-31T05:48:30.551Z,0
2016-12-31T05:49:30.590Z,0
2016-12-31T05:50:15.658Z,0
2016-12-31T05:51:15.670Z,0
2016-12-31T05:52:15.690Z,0
2016-12-31T05:53:30.611Z,0
2016-12-31T05:54:15.723Z,0
2016-12-31T05:55:15.721Z,0
2016-12-31T05:56:15.732Z,0
2016-12-31T05:57:15.743Z,0
2016-12-31T05:58:15.756Z,0
2016-12-31T05:59:30.686Z,0
2016-12-31T06:00:30.698Z,0
2016-12-31T06:01:15.792Z,0
2016-12-31T06:02:30.724Z,0
2016-12-31T06:04:15.834Z,0
2016-12-31T06:05:15.846Z,0
2016-12-31T06:07:15.868Z,0
2016-12-31T06:08:15.879Z,0
2016-12-31T06:09:30.806Z,0
2016-12-31T06:10:15.907Z,0
2016-12-31T06:11:15.915Z,0
2016-12-31T06:12:15.929Z,0
2016-12-31T06:13:15.939Z,0
2016-12-31T06:14:15.951Z,0
2016-12-31T06:15:15.966Z,0
2016-12-31T06:16:15.980Z,0
2016-12-31T06:17:30.905Z,0
2016-12-31T06:18:16.002Z,0
2016-12-31T06:19:30.933Z,0
2016-12-31T06:20:16.024Z,0
2016-12-31T06:21:16.041Z,0
2016-12-31T06:22:16.053Z,0
2016-12-31T06:23:16.064Z,0
2016-12-31T06:24:16.083Z,0
2016-12-31T06:25:31.008Z,0
2016-12-31T06:26:16.102Z,0
2016-12-31T06:27:16.121Z,0
2016-12-31T06:28:16.125Z,0
2016-12-31T06:29:16.137Z,0
2016-12-31T06:30:16.151Z,4
2016-12-31T06:31:31.085Z,0
2016-12-31T06:32:31.091Z,0
2016-12-31T06:33:16.190Z,4
2016-12-31T06:34:16.202Z,0
2016-12-31T06:35:16.212Z,4
2016-12-31T06:36:16.228Z,4
2016-12-31T06:37:31.154Z,4
2016-12-31T06:38:16.249Z,4
2016-12-31T06:39:16.265Z,4
2016-12-31T06:40:31.196Z,8
2016-12-31T06:41:16.286Z,8
2016-12-31T06:42:16.302Z,12
2016-12-31T06:43:16.319Z,12
2016-12-31T06:44:16.387Z,12
2016-12-31T06:45:16.335Z,16
2016-12-31T06:46:16.351Z,20
2016-12-31T06:47:31.279Z,20
2016-12-31T06:48:16.377Z,24
2016-12-31T06:51:16.411Z,32
2016-12-31T06:52:16.424Z,40
2016-12-31T06:53:16.440Z,44
2016-12-31T06:54:16.448Z,48
2016-12-31T06:55:16.461Z,56
2016-12-31T06:56:16.473Z,64
2016-12-31T06:57:16.486Z,72
2016-12-31T06:58:16.501Z,84
2016-12-31T06:59:16.534Z,88
2016-12-31T07:00:16.522Z,100
2016-12-31T07:01:16.535Z,112
2016-12-31T07:02:16.556Z,124
2016-12-31T07:03:16.565Z,136
2016-12-31T07:04:16.573Z,148
2016-12-31T07:05:31.501Z,168
2016-12-31T07:06:16.600Z,176
2016-12-31T07:07:16.613Z,192
2016-12-31T07:08:16.635Z,208
2016-12-31T07:09:16.636Z,228
2016-12-31T07:10:16.649Z,248
2016-12-31T07:11:16.660Z,268
2016-12-31T07:12:31.593Z,292
2016-12-31T07:13:16.687Z,308
2016-12-31T07:14:31.620Z,332
2016-12-31T07:15:16.712Z,352
2016-12-31T07:16:16.722Z,376
2016-12-31T07:17:16.744Z,400
2016-12-31T07:18:16.752Z,424
2016-12-31T07:19:16.759Z,448
2016-12-31T07:20:16.795Z,480
2016-12-31T07:21:16.788Z,504
2016-12-31T07:22:16.796Z,536
2016-12-31T07:23:16.813Z,568
2016-12-31T07:24:16.827Z,596
2016-12-31T07:25:16.834Z,628
2016-12-31T07:26:16.848Z,660
2016-12-31T07:27:16.860Z,692
2016-12-31T07:28:31.791Z,732
2016-12-31T07:29:16.887Z,756
2016-12-31T07:31:16.915Z,824
2016-12-31T07:32:31.844Z,868
2016-12-31T07:33:31.856Z,900
2016-12-31T07:34:16.952Z,928
2016-12-31T07:35:16.963Z,968
2016-12-31T07:36:31.896Z,1008
2016-12-31T07:37:16.994Z,1036
2016-12-31T07:38:17.000Z,1068
2016-12-31T07:39:17.017Z,1104
2016-12-31T07:40:17.032Z,1140
2016-12-31T07:41:17.041Z,1176
2016-12-31T07:42:17.050Z,1212
2016-12-31T07:43:17.067Z,1248
2016-12-31T07:44:31.995Z,1288
2016-12-31T07:45:17.120Z,1320
2016-12-31T07:46:17.107Z,1352
2016-12-31T07:47:32.036Z,1392
2016-12-31T07:48:32.048Z,1432
2016-12-31T07:49:17.171Z,1456
2016-12-31T07:50:17.155Z,1488
2016-12-31T07:51:17.169Z,1524
2016-12-31T07:52:17.182Z,1556
2016-12-31T07:53:32.107Z,1592
2016-12-31T07:54:32.124Z,1632
2016-12-31T07:55:17.225Z,1648
2016-12-31T07:56:17.250Z,1676
2016-12-31T07:57:17.241Z,1712
2016-12-31T07:58:17.259Z,1736
2016-12-31T07:59:17.271Z,1768
2016-12-31T08:00:32.198Z,1816
2016-12-31T08:01:17.301Z,1844
2016-12-31T08:02:17.305Z,1868
2016-12-31T08:03:17.325Z,1884
2016-12-31T08:04:17.329Z,1916
2016-12-31T08:05:32.264Z,1948
2016-12-31T08:06:17.360Z,1964
2016-12-31T08:07:32.289Z,1992
2016-12-31T08:08:17.394Z,2012
2016-12-31T08:09:17.404Z,2032
2016-12-31T08:10:17.409Z,2060
2016-12-31T08:11:32.340Z,2088
2016-12-31T08:12:17.437Z,2104
2016-12-31T08:14:17.462Z,2148
2016-12-31T08:15:32.780Z,2172
2016-12-31T08:16:17.495Z,2192
2016-12-31T08:17:17.504Z,2220
2016-12-31T08:18:32.436Z,2244
2016-12-31T08:19:17.525Z,2252
2016-12-31T08:20:17.544Z,2268
2016-12-31T08:21:32.471Z,2284
2016-12-31T08:22:17.565Z,2300
2016-12-31T08:23:17.579Z,2320
2016-12-31T08:24:17.595Z,2344
2016-12-31T08:26:17.620Z,2372
2016-12-31T08:27:17.633Z,2380
2016-12-31T08:28:17.648Z,2400
2016-12-31T08:29:17.662Z,2420
2016-12-31T08:30:17.670Z,2436
2016-12-31T08:31:17.684Z,2456
2016-12-31T08:32:17.698Z,2468
2016-12-31T08:33:17.712Z,2484
2016-12-31T08:34:17.727Z,2504
2016-12-31T08:35:17.746Z,2516
2016-12-31T08:36:17.746Z,2528
2016-12-31T08:37:17.798Z,2552
2016-12-31T08:38:17.777Z,2568
2016-12-31T08:39:17.796Z,2584
2016-12-31T08:40:17.799Z,2596
2016-12-31T08:41:32.734Z,2612
2016-12-31T08:42:32.745Z,2616
2016-12-31T08:43:17.840Z,2624
2016-12-31T08:44:17.859Z,2636
2016-12-31T08:45:17.873Z,2644
2016-12-31T08:46:17.880Z,2664
2016-12-31T08:47:32.809Z,2712
2016-12-31T08:48:17.911Z,2732
2016-12-31T08:49:17.920Z,2900
2016-12-31T08:50:17.939Z,3156
2016-12-31T08:51:17.957Z,3352
2016-12-31T08:52:17.959Z,3536
2016-12-31T08:53:17.975Z,3688
2016-12-31T08:54:17.988Z,3776
2016-12-31T08:55:18.388Z,3844
2016-12-31T08:56:18.016Z,3768
2016-12-31T08:57:18.026Z,3688
2016-12-31T08:59:18.054Z,3768
2016-12-31T09:00:18.067Z,3760
2016-12-31T09:01:18.081Z,3752
2016-12-31T09:02:18.099Z,3760
2016-12-31T09:03:33.024Z,3780
2016-12-31T09:04:18.119Z,3780
2016-12-31T09:05:18.132Z,3804
2016-12-31T09:06:18.151Z,3844
2016-12-31T09:07:18.163Z,3900
2016-12-31T09:08:18.177Z,3956
2016-12-31T09:09:18.190Z,4004
2016-12-31T09:10:18.203Z,4012
2016-12-31T09:11:18.217Z,4032
2016-12-31T09:12:18.230Z,4048
2016-12-31T09:13:18.251Z,4052
2016-12-31T09:14:33.173Z,4060
2016-12-31T09:15:33.185Z,4052
2016-12-31T09:16:33.201Z,4052
2016-12-31T09:17:18.298Z,4064
2016-12-31T09:18:33.252Z,4064
2016-12-31T09:19:33.240Z,4060
2016-12-31T09:20:18.338Z,4052
2016-12-31T09:21:18.353Z,4064
2016-12-31T09:22:18.367Z,4068
2016-12-31T09:23:18.380Z,3884
2016-12-31T09:24:33.313Z,4076
2016-12-31T09:26:18.423Z,4064
2016-12-31T09:27:18.438Z,4080
2016-12-31T09:28:18.450Z,4024
2016-12-31T09:29:18.463Z,4084
2016-12-31T09:30:18.476Z,4056
2016-12-31T09:31:18.879Z,4064
2016-12-31T09:32:18.502Z,4056
2016-12-31T09:33:18.524Z,4044
2016-12-31T09:34:18.539Z,4048
2016-12-31T09:35:33.464Z,4056
2016-12-31T09:36:18.562Z,4072
2016-12-31T09:37:18.573Z,4076
2016-12-31T09:38:18.590Z,4032
2016-12-31T09:39:18.606Z,3952
2016-12-31T09:40:18.616Z,4032
2016-12-31T09:41:18.630Z,4060
2016-12-31T09:42:18.647Z,4076
2016-12-31T09:43:18.660Z,4084
2016-12-31T09:44:18.672Z,4100
2016-12-31T09:45:18.687Z,4120
2016-12-31T09:46:33.644Z,4136
2016-12-31T09:47:18.719Z,4124
2016-12-31T09:48:18.732Z,4136
2016-12-31T09:50:33.681Z,4156
2016-12-31T09:51:18.779Z,4168
2016-12-31T09:52:18.791Z,4180
2016-12-31T09:53:18.807Z,4184
2016-12-31T09:54:18.816Z,4184
2016-12-31T09:55:18.827Z,4204
2016-12-31T09:56:33.763Z,4036
2016-12-31T09:57:18.864Z,4216
2016-12-31T09:58:18.890Z,4232
2016-12-31T10:00:18.906Z,4212
2016-12-31T10:01:18.939Z,4196
2016-12-31T10:02:33.846Z,4092
2016-12-31T10:04:18.958Z,3964
2016-12-31T10:05:18.979Z,3936
2016-12-31T10:06:18.991Z,3828
2016-12-31T10:07:18.999Z,3728
2016-12-31T10:08:19.013Z,3556
2016-12-31T10:09:19.031Z,3476
2016-12-31T10:10:19.046Z,3444
2016-12-31T10:11:33.979Z,3288
2016-12-31T10:12:33.992Z,3292
2016-12-31T10:13:19.087Z,3208
2016-12-31T10:14:19.103Z,3180
2016-12-31T10:15:19.504Z,3156
2016-12-31T10:18:19.163Z,3032
2016-12-31T10:19:19.174Z,3016
2016-12-31T10:20:19.189Z,3004
2016-12-31T10:21:19.255Z,3004
2016-12-31T10:22:34.140Z,2992
2016-12-31T10:23:34.155Z,2980
2016-12-31T10:24:19.246Z,2988
2016-12-31T10:25:19.261Z,2988
2016-12-31T10:26:19.281Z,2988
2016-12-31T10:27:34.210Z,2988
2016-12-31T10:28:19.306Z,2988
2016-12-31T10:29:34.237Z,2992
2016-12-31T10:30:19.337Z,2980
2016-12-31T10:32:19.391Z,2988
2016-12-31T10:34:19.396Z,2988
2016-12-31T10:35:19.409Z,3004
2016-12-31T10:36:34.368Z,3012
2016-12-31T10:37:19.442Z,3008
2016-12-31T10:38:34.376Z,3016
2016-12-31T10:39:19.466Z,3016
2016-12-31T10:40:19.485Z,3012
2016-12-31T10:41:19.520Z,3016
2016-12-31T10:42:19.896Z,3032
2016-12-31T10:43:19.522Z,3028
2016-12-31T10:44:19.539Z,3028
2016-12-31T10:45:19.557Z,3036
2016-12-31T10:46:19.569Z,3028
2016-12-31T10:47:19.584Z,3028
2016-12-31T10:48:19.598Z,3032
2016-12-31T10:49:34.533Z,3036
2016-12-31T10:50:34.547Z,3044
2016-12-31T10:51:19.644Z,3036
2016-12-31T10:52:19.663Z,3044
2016-12-31T10:53:19.673Z,3048
2016-12-31T10:54:34.605Z,3048
2016-12-31T10:55:19.700Z,3048
2016-12-31T10:56:19.718Z,3056
2016-12-31T10:57:19.734Z,3052
2016-12-31T10:58:19.747Z,3060
2016-12-31T10:59:19.759Z,3060
2016-12-31T11:00:19.781Z,3056
2016-12-31T11:01:19.791Z,3072
2016-12-31T11:02:19.806Z,3064
2016-12-31T11:04:19.836Z,3076
2016-12-31T11:05:19.849Z,3068
2016-12-31T11:06:19.892Z,3076
2016-12-31T11:07:19.880Z,3076
2016-12-31T11:09:19.908Z,3072
2016-12-31T11:10:34.842Z,3080
2016-12-31T11:11:19.964Z,3084
2016-12-31T11:12:19.958Z,3084
2016-12-31T11:13:19.969Z,3076
2016-12-31T11:14:19.982Z,3088
2016-12-31T11:15:20.001Z,3088
2016-12-31T11:16:20.013Z,3088
2016-12-31T11:17:20.037Z,3096
2016-12-31T11:18:34.963Z,3096
2016-12-31T11:19:20.064Z,3100
2016-12-31T11:20:20.075Z,3088
2016-12-31T11:21:20.116Z,3096
2016-12-31T11:22:20.104Z,3096
2016-12-31T11:23:20.122Z,3092
2016-12-31T11:24:20.134Z,3108
2016-12-31T11:25:35.068Z,3092
2016-12-31T11:26:20.167Z,3108
2016-12-31T11:27:20.186Z,3096
2016-12-31T11:28:20.203Z,3108
2016-12-31T11:29:20.212Z,3120
2016-12-31T11:30:20.227Z,3108
2016-12-31T11:31:20.244Z,3116
2016-12-31T11:32:20.260Z,3112
2016-12-31T11:33:20.273Z,3104
2016-12-31T11:34:20.287Z,3112
2016-12-31T11:35:20.307Z,3112
2016-12-31T11:36:35.242Z,3128
2016-12-31T11:37:20.339Z,3120
2016-12-31T11:38:20.353Z,3120
2016-12-31T11:39:20.371Z,3124
2016-12-31T11:40:20.379Z,3132
2016-12-31T11:41:20.395Z,3128
2016-12-31T11:42:20.409Z,3128
2016-12-31T11:43:20.426Z,3140
2016-12-31T11:44:20.449Z,3136
2016-12-31T11:45:20.456Z,3136
2016-12-31T11:46:35.392Z,3140
2016-12-31T11:47:20.495Z,3136
2016-12-31T11:48:20.504Z,3144
2016-12-31T11:49:20.522Z,3136
2016-12-31T11:50:20.544Z,3152
2016-12-31T11:51:20.598Z,3144
2016-12-31T11:52:20.958Z,3148
2016-12-31T11:53:20.580Z,3148
2016-12-31T11:54:20.597Z,3148
2016-12-31T11:55:20.619Z,3144
2016-12-31T11:56:20.627Z,3144
2016-12-31T11:57:35.558Z,3160
2016-12-31T11:58:20.693Z,3148
2016-12-31T11:59:35.596Z,3160
2016-12-31T12:00:20.689Z,3156
2016-12-31T12:01:35.625Z,3160
2016-12-31T12:02:20.726Z,3164
2016-12-31T12:04:35.671Z,3164
2016-12-31T12:05:20.767Z,3152
2016-12-31T12:06:20.782Z,3164
2016-12-31T12:07:35.717Z,3160
2016-12-31T12:08:20.814Z,3160
2016-12-31T12:09:20.830Z,3160
2016-12-31T12:10:20.851Z,3156
2016-12-31T12:11:20.862Z,3160
2016-12-31T12:12:20.879Z,3168
2016-12-31T12:13:35.814Z,3152
2016-12-31T12:14:20.910Z,3164
2016-12-31T12:15:20.923Z,3152
2016-12-31T12:16:35.861Z,3168
2016-12-31T12:17:20.956Z,3160
2016-12-31T12:18:20.974Z,3152
2016-12-31T12:19:20.987Z,3148
2016-12-31T12:20:21.013Z,3148
2016-12-31T12:21:21.020Z,3148
2016-12-31T12:22:21.036Z,3156
2016-12-31T12:23:21.050Z,3152
2016-12-31T12:24:21.068Z,3140
2016-12-31T12:25:21.081Z,3140
2016-12-31T12:26:21.102Z,3152
2016-12-31T12:27:21.115Z,3140
2016-12-31T12:28:21.133Z,3144
2016-12-31T12:29:36.088Z,3120
2016-12-31T12:30:21.161Z,3144
2016-12-31T12:31:21.180Z,3128
2016-12-31T12:32:21.193Z,3128
2016-12-31T12:33:21.206Z,3132
2016-12-31T12:34:36.144Z,3128
2016-12-31T12:35:36.159Z,3116
2016-12-31T12:36:21.262Z,3124
2016-12-31T12:37:36.239Z,3116
2016-12-31T12:38:21.288Z,3112
2016-12-31T12:39:21.306Z,3116
2016-12-31T12:40:36.241Z,3104
2016-12-31T12:42:21.356Z,3108
2016-12-31T12:43:21.372Z,3104
2016-12-31T12:44:21.393Z,3100
2016-12-31T12:45:36.317Z,3096
2016-12-31T12:46:21.416Z,3096
2016-12-31T12:48:36.370Z,3092
2016-12-31T12:49:21.466Z,3072
2016-12-31T12:50:21.479Z,3064
2016-12-31T12:51:21.503Z,3068
2016-12-31T12:52:21.512Z,3064
2016-12-31T12:53:21.538Z,3048
2016-12-31T12:54:21.543Z,3032
2016-12-31T12:55:21.559Z,3036
2016-12-31T12:56:21.575Z,3036
2016-12-31T12:57:21.595Z,3020
2016-12-31T12:58:21.610Z,3012
2016-12-31T12:59:21.625Z,3004
2016-12-31T13:00:36.562Z,2992
2016-12-31T13:01:21.659Z,2976
2016-12-31T13:02:21.673Z,2976
2016-12-31T13:03:21.691Z,2960
2016-12-31T13:04:21.734Z,2952
2016-12-31T13:05:21.721Z,2956
2016-12-31T13:07:21.757Z,2920
2016-12-31T13:08:36.687Z,2904
2016-12-31T13:09:21.789Z,2896
2016-12-31T13:10:36.725Z,2884
2016-12-31T13:12:21.838Z,2864
2016-12-31T13:13:21.855Z,2864
2016-12-31T13:14:21.869Z,2852
2016-12-31T13:15:21.885Z,2844
2016-12-31T13:16:21.901Z,2828
2016-12-31T13:17:21.915Z,2816
2016-12-31T13:18:21.934Z,2808
2016-12-31T13:19:21.949Z,2780
2016-12-31T13:20:21.967Z,2776
2016-12-31T13:21:21.980Z,2768
2016-12-31T13:22:21.999Z,2744
2016-12-31T13:23:22.014Z,2744
2016-12-31T13:24:22.030Z,2728
2016-12-31T13:25:22.045Z,2700
2016-12-31T13:26:22.062Z,2684
2016-12-31T13:27:22.081Z,2668
2016-12-31T13:28:22.097Z,2648
2016-12-31T13:29:22.133Z,2640
2016-12-31T13:30:22.128Z,2616
2016-12-31T13:31:22.143Z,2600
2016-12-31T13:32:37.076Z,2580
2016-12-31T13:33:22.175Z,2568
2016-12-31T13:34:22.193Z,2560
2016-12-31T13:35:22.216Z,2548
2016-12-31T13:36:22.222Z,2532
2016-12-31T13:37:22.241Z,2528
2016-12-31T13:38:22.256Z,2496
2016-12-31T13:39:22.275Z,2424
2016-12-31T13:40:22.290Z,2456
2016-12-31T13:42:22.322Z,2164
2016-12-31T13:43:37.642Z,2388
2016-12-31T13:44:22.355Z,2360
2016-12-31T13:47:22.406Z,2264
2016-12-31T13:48:37.339Z,2240
2016-12-31T13:49:22.443Z,2216
2016-12-31T13:50:22.455Z,2176
2016-12-31T13:51:22.469Z,2144
2016-12-31T13:52:22.482Z,2100
2016-12-31T13:53:37.418Z,2040
2016-12-31T13:54:22.517Z,2004
2016-12-31T13:55:22.530Z,1924
2016-12-31T13:56:22.549Z,1868
2016-12-31T13:57:37.486Z,1708
2016-12-31T13:58:37.500Z,1664
2016-12-31T13:59:22.986Z,1600
2016-12-31T14:01:22.637Z,1552
2016-12-31T14:02:22.645Z,1556
2016-12-31T14:03:22.665Z,1536
2016-12-31T14:04:37.646Z,1504
2016-12-31T14:05:23.080Z,1492
2016-12-31T14:06:22.714Z,1484
2016-12-31T14:07:22.730Z,1472
2016-12-31T14:08:22.744Z,1440
2016-12-31T14:09:22.760Z,1420
2016-12-31T14:10:22.778Z,1400
2016-12-31T14:11:22.793Z,1392
2016-12-31T14:12:22.808Z,1372
2016-12-31T14:14:22.851Z,1332
2016-12-31T14:15:22.855Z,1312
2016-12-31T14:16:22.876Z,1292
2016-12-31T14:17:22.890Z,1272
2016-12-31T14:18:37.830Z,1248
2016-12-31T14:19:22.922Z,1232
2016-12-31T14:20:37.854Z,1204
2016-12-31T14:21:22.951Z,1188
2016-12-31T14:22:22.969Z,1168
2016-12-31T14:23:22.985Z,1148
2016-12-31T14:24:23.003Z,1124
2016-12-31T14:25:23.015Z,1104
2016-12-31T14:26:37.949Z,1076
2016-12-31T14:27:23.044Z,1056
2016-12-31T14:28:23.065Z,1036
2016-12-31T14:29:23.077Z,1008
2016-12-31T14:30:23.096Z,988
2016-12-31T14:31:23.110Z,960
2016-12-31T14:32:23.129Z,940
2016-12-31T14:33:23.143Z,912
2016-12-31T14:34:23.165Z,888
2016-12-31T14:35:38.096Z,856
2016-12-31T14:36:23.190Z,836
2016-12-31T14:37:23.207Z,812
2016-12-31T14:38:23.222Z,788
2016-12-31T14:39:23.238Z,760
2016-12-31T14:40:38.173Z,728
2016-12-31T14:41:23.267Z,708
2016-12-31T14:42:23.287Z,684